Date,TemperatureHighF,TemperatureAvgF,TemperatureLowF,DewpointHighF,DewpointAvgF,DewpointLowF,HumidityHigh,HumidityAvg,HumidityLow,PressureMaxIn,PressureMinIn,WindSpeedMaxMPH,WindSpeedAvgMPH,GustSpeedMaxMPH,PrecipitationSumIn
2013-1-2,27.2,23.8,21.3,17.1,13.9,12.0,70,65,61,30.26,30.11,4,2,13,0.00
2013-1-3,30.3,24.5,18.8,22.1,16.5,12.5,77,71,65,30.27,30.18,8,2,16,0.00
2013-1-4,33.1,28.1,25.5,23.9,21.0,19.4,80,75,67,30.21,30.10,11,7,26,0.01
2013-1-5,34.4,29.8,24.9,25.7,22.2,19.6,80,73,66,30.40,30.16,13,4,29,0.00
2013-1-6,38.4,35.2,29.8,29.7,27.2,24.0,82,73,66,30.22,30.05,5,2,13,0.08
2013-1-7,35.6,32.3,28.2,29.6,26.0,23.2,82,77,72,30.45,30.17,6,2,18,0.08
2013-1-8,44.1,34.9,28.8,32.7,28.2,23.4,85,77,63,30.44,30.37,2,0,9,0.18
2013-1-9,45.6,40.4,36.3,41.6,34.2,30.4,89,78,67,30.41,30.24,10,3,27,0.16
2013-1-10,43.4,38.2,34.4,32.0,29.1,27.2,77,70,60,30.61,30.38,8,3,28,0.00
2013-1-11,39.8,36.1,34.1,39.0,32.2,27.9,97,86,74,30.51,30.12,4,1,16,0.22
2013-1-12,56.5,46.5,37.2,54.0,45.4,36.4,100,96,85,30.19,30.11,4,0,9,0.00
2013-1-13,54.8,49.4,44.4,54.5,48.9,43.9,100,98,96,30.12,29.96,3,1,12,0.01
2013-1-14,55.4,45.4,33.6,55.4,42.5,31.8,100,90,75,30.30,29.96,9,2,23,0.25
2013-1-15,34.4,32.4,29.2,32.5,30.4,27.9,96,92,84,30.36,30.17,4,0,9,0.12
2013-1-16,36.9,31.4,28.5,35.0,30.5,27.5,97,96,88,30.17,29.88,4,0,9,0.01
2013-1-17,36.9,33.1,30.6,33.3,28.3,25.5,89,82,66,30.15,30.01,5,2,15,0.06
2013-1-18,30.7,25.7,20.3,26.1,16.6,9.8,84,68,57,30.49,30.07,8,3,27,0.00
2013-1-19,48.3,32.5,23.1,33.0,25.7,19.7,92,77,55,30.42,29.96,3,1,15,0.00
2013-1-20,47.3,37.0,26.2,33.1,23.6,14.9,79,59,35,30.08,29.83,10,5,30,0.00
2013-1-21,33.3,25.2,18.3,23.5,16.1,8.1,76,68,59,30.09,29.86,10,2,25,0.00
2013-1-22,18.3,10.5,6.8,8.1,-0.7,-3.6,72,60,49,30.32,29.95,12,6,31,0.00
2013-1-23,17.0,10.5,4.7,7.4,0.3,-2.3,81,64,49,30.38,30.18,6,2,17,0.00
2013-1-24,18.8,13.0,8.6,8.5,5.4,-0.1,88,72,53,30.55,30.14,8,3,23,0.00
2013-1-25,15.0,12.0,9.0,11.3,5.4,-0.1,91,75,58,30.55,30.10,4,0,14,0.00
2013-1-26,23.6,19.0,13.3,19.8,16.0,11.2,92,88,79,30.48,30.12,4,0,11,0.00
2013-1-27,28.7,22.6,15.6,21.7,16.7,12.4,89,78,67,30.62,30.48,3,0,10,0.05
2013-1-28,43.7,30.4,25.0,43.2,28.5,21.7,98,93,79,30.51,30.10,3,1,12,0.22
2013-1-29,61.8,54.2,43.7,55.6,50.4,43.2,98,87,78,30.15,29.95,4,2,13,0.02
2013-1-30,61.7,54.3,51.3,59.5,53.1,49.5,100,95,83,29.96,29.23,9,3,27,1.82
2013-1-31,52.1,32.2,22.1,51.8,25.0,11.3,99,75,61,29.86,29.15,16,8,33,0.38